sensor_id;sensor_type;location;lat;lon;timestamp;pressure;altitude;pressure_sealevel;temperature;humidity
77939;BME280;67136;47.546;21.630;2023-03-14T00:02:02;99796.84;;;4.44;61.39
77939;BME280;67136;47.546;21.630;2023-03-14T00:05:05;99798.09;;;4.38;61.37
77939;BME280;67136;47.546;21.630;2023-03-14T00:08:12;99797.38;;;4.36;61.61
77939;BME280;67136;47.546;21.630;2023-03-14T00:11:20;99798.47;;;4.32;61.65
77939;BME280;67136;47.546;21.630;2023-03-14T00:14:23;99789.81;;;4.33;61.65
77939;BME280;67136;47.546;21.630;2023-03-14T00:17:27;99786.28;;;4.34;61.62
77939;BME280;67136;47.546;21.630;2023-03-14T00:20:29;99777.50;;;4.37;61.51
77939;BME280;67136;47.546;21.630;2023-03-14T00:23:34;99781.09;;;4.34;61.80
77939;BME280;67136;47.546;21.630;2023-03-14T00:26:36;99772.59;;;4.32;61.65
77939;BME280;67136;47.546;21.630;2023-03-14T00:29:42;99776.97;;;4.32;62.04
77939;BME280;67136;47.546;21.630;2023-03-14T00:32:44;99770.22;;;4.29;62.29
77939;BME280;67136;47.546;21.630;2023-03-14T00:35:59;99755.63;;;4.28;62.06
77939;BME280;67136;47.546;21.630;2023-03-14T00:39:03;99754.69;;;4.29;62.06
77939;BME280;67136;47.546;21.630;2023-03-14T00:42:06;99755.81;;;4.25;62.06
77939;BME280;67136;47.546;21.630;2023-03-14T00:45:09;99759.56;;;4.21;62.66
77939;BME280;67136;47.546;21.630;2023-03-14T00:48:12;99751.47;;;4.13;62.66
77939;BME280;67136;47.546;21.630;2023-03-14T00:51:16;99753.09;;;4.14;62.92
77939;BME280;67136;47.546;21.630;2023-03-14T00:54:19;99753.69;;;4.05;63.26
77939;BME280;67136;47.546;21.630;2023-03-14T00:57:22;99743.75;;;3.99;63.38
77939;BME280;67136;47.546;21.630;2023-03-14T01:00:25;99739.78;;;3.94;63.85
77939;BME280;67136;47.546;21.630;2023-03-14T01:03:27;99733.81;;;3.93;64.18
77939;BME280;67136;47.546;21.630;2023-03-14T01:06:30;99723.94;;;3.86;64.31
77939;BME280;67136;47.546;21.630;2023-03-14T01:09:33;99719.19;;;3.79;64.54
77939;BME280;67136;47.546;21.630;2023-03-14T01:12:37;99721.31;;;3.73;65.05
77939;BME280;67136;47.546;21.630;2023-03-14T01:15:39;99714.28;;;3.75;64.87
77939;BME280;67136;47.546;21.630;2023-03-14T01:18:44;99711.25;;;3.68;64.92
77939;BME280;67136;47.546;21.630;2023-03-14T01:21:47;99705.75;;;3.60;65.31
77939;BME280;67136;47.546;21.630;2023-03-14T01:24:50;99699.00;;;3.58;65.53
77939;BME280;67136;47.546;21.630;2023-03-14T01:27:52;99690.13;;;3.49;65.77
77939;BME280;67136;47.546;21.630;2023-03-14T01:30:55;99690.19;;;3.48;65.76
77939;BME280;67136;47.546;21.630;2023-03-14T01:33:58;99693.50;;;3.50;66.54
77939;BME280;67136;47.546;21.630;2023-03-14T01:37:01;99683.56;;;3.44;66.50
77939;BME280;67136;47.546;21.630;2023-03-14T01:40:04;99680.44;;;3.39;66.64
77939;BME280;67136;47.546;21.630;2023-03-14T01:43:16;99676.19;;;3.38;66.71
77939;BME280;67136;47.546;21.630;2023-03-14T01:49:38;99665.31;;;3.33;66.74
77939;BME280;67136;47.546;21.630;2023-03-14T01:52:48;99656.94;;;3.29;67.21
77939;BME280;67136;47.546;21.630;2023-03-14T01:55:55;99663.13;;;3.27;67.06
77939;BME280;67136;47.546;21.630;2023-03-14T01:59:00;99662.38;;;3.25;67.12
77939;BME280;67136;47.546;21.630;2023-03-14T02:02:09;99653.72;;;3.26;67.06
77939;BME280;67136;47.546;21.630;2023-03-14T02:05:17;99660.03;;;3.34;66.93
77939;BME280;67136;47.546;21.630;2023-03-14T02:08:23;99653.00;;;3.50;66.12
77939;BME280;67136;47.546;21.630;2023-03-14T02:11:28;99650.37;;;3.64;65.45
77939;BME280;67136;47.546;21.630;2023-03-14T02:14:34;99639.62;;;3.83;64.77
77939;BME280;67136;47.546;21.630;2023-03-14T02:17:42;99640.09;;;4.02;64.16
77939;BME280;67136;47.546;21.630;2023-03-14T02:21:23;99646.94;;;4.16;63.48
77939;BME280;67136;47.546;21.630;2023-03-14T02:27:54;99639.50;;;4.36;62.53
77939;BME280;67136;47.546;21.630;2023-03-14T02:30:57;99628.31;;;4.36;62.50
77939;BME280;67136;47.546;21.630;2023-03-14T02:34:00;99632.06;;;4.32;62.59
77939;BME280;67136;47.546;21.630;2023-03-14T02:37:05;99623.16;;;4.23;62.79
77939;BME280;67136;47.546;21.630;2023-03-14T02:40:08;99626.44;;;4.25;62.76
77939;BME280;67136;47.546;21.630;2023-03-14T02:43:12;99621.28;;;4.25;62.74
77939;BME280;67136;47.546;21.630;2023-03-14T02:46:20;99608.66;;;4.21;62.80
77939;BME280;67136;47.546;21.630;2023-03-14T02:49:25;99605.56;;;4.28;62.67
77939;BME280;67136;47.546;21.630;2023-03-14T02:52:32;99605.53;;;4.41;62.25
77939;BME280;67136;47.546;21.630;2023-03-14T02:55:35;99604.72;;;4.53;61.84
77939;BME280;67136;47.546;21.630;2023-03-14T02:58:38;99598.47;;;4.68;61.23
77939;BME280;67136;47.546;21.630;2023-03-14T03:01:42;99603.03;;;4.64;61.44
77939;BME280;67136;47.546;21.630;2023-03-14T03:04:44;99594.94;;;4.69;61.24
77939;BME280;67136;47.546;21.630;2023-03-14T03:07:47;99591.22;;;4.60;61.53
77939;BME280;67136;47.546;21.630;2023-03-14T03:10:50;99595.69;;;4.58;61.55
77939;BME280;67136;47.546;21.630;2023-03-14T03:13:53;99594.12;;;4.56;61.70
77939;BME280;67136;47.546;21.630;2023-03-14T03:16:56;99590.63;;;4.57;61.59
77939;BME280;67136;47.546;21.630;2023-03-14T03:19:59;99587.22;;;4.56;61.60
77939;BME280;67136;47.546;21.630;2023-03-14T03:23:01;99585.66;;;4.54;61.68
77939;BME280;67136;47.546;21.630;2023-03-14T03:26:04;99584.84;;;4.53;61.73
77939;BME280;67136;47.546;21.630;2023-03-14T03:29:07;99581.41;;;4.53;61.86
77939;BME280;67136;47.546;21.630;2023-03-14T03:32:10;99567.41;;;4.55;61.66
77939;BME280;67136;47.546;21.630;2023-03-14T03:35:12;99563.69;;;4.59;61.62
77939;BME280;67136;47.546;21.630;2023-03-14T03:38:16;99566.34;;;4.70;61.25
77939;BME280;67136;47.546;21.630;2023-03-14T03:41:19;99555.06;;;4.71;61.12
77939;BME280;67136;47.546;21.630;2023-03-14T03:44:22;99554.31;;;4.82;60.72
77939;BME280;67136;47.546;21.630;2023-03-14T03:47:26;99547.00;;;4.99;60.06
77939;BME280;67136;47.546;21.630;2023-03-14T03:50:31;99538.00;;;5.16;59.46
77939;BME280;67136;47.546;21.630;2023-03-14T03:53:33;99537.06;;;5.41;58.54
77939;BME280;67136;47.546;21.630;2023-03-14T03:56:37;99533.59;;;5.64;57.61
77939;BME280;67136;47.546;21.630;2023-03-14T03:59:40;99535.84;;;5.68;57.36
77939;BME280;67136;47.546;21.630;2023-03-14T04:02:43;99521.19;;;5.91;56.45
77939;BME280;67136;47.546;21.630;2023-03-14T04:06:00;99523.94;;;6.11;55.56
77939;BME280;67136;47.546;21.630;2023-03-14T04:09:04;99508.44;;;6.10;55.66
77939;BME280;67136;47.546;21.630;2023-03-14T04:12:08;99508.00;;;6.38;54.53
77939;BME280;67136;47.546;21.630;2023-03-14T04:15:10;99505.16;;;6.41;54.47
77939;BME280;67136;47.546;21.630;2023-03-14T04:18:13;99504.19;;;6.53;54.09
77939;BME280;67136;47.546;21.630;2023-03-14T04:21:17;99507.50;;;6.55;53.89
77939;BME280;67136;47.546;21.630;2023-03-14T04:24:20;99507.00;;;6.61;53.68
77939;BME280;67136;47.546;21.630;2023-03-14T04:27:23;99494.97;;;6.60;53.63
77939;BME280;67136;47.546;21.630;2023-03-14T04:30:27;99496.59;;;6.72;53.16
77939;BME280;67136;47.546;21.630;2023-03-14T04:33:30;99487.03;;;6.73;53.11
77939;BME280;67136;47.546;21.630;2023-03-14T04:36:33;99470.97;;;6.68;53.43
77939;BME280;67136;47.546;21.630;2023-03-14T04:39:36;99466.38;;;6.71;53.27
77939;BME280;67136;47.546;21.630;2023-03-14T04:42:41;99466.56;;;6.79;52.92
77939;BME280;67136;47.546;21.630;2023-03-14T04:45:44;99454.03;;;6.95;52.29
77939;BME280;67136;47.546;21.630;2023-03-14T04:48:46;99457.28;;;6.97;52.25
77939;BME280;67136;47.546;21.630;2023-03-14T04:51:51;99453.25;;;7.04;51.99
77939;BME280;67136;47.546;21.630;2023-03-14T04:54:54;99443.16;;;7.22;51.26
77939;BME280;67136;47.546;21.630;2023-03-14T04:57:58;99443.38;;;7.39;50.70
77939;BME280;67136;47.546;21.630;2023-03-14T05:01:03;99442.66;;;7.79;49.27
77939;BME280;67136;47.546;21.630;2023-03-14T05:04:06;99435.00;;;7.87;48.72
77939;BME280;67136;47.546;21.630;2023-03-14T05:07:09;99437.72;;;8.06;48.02
77939;BME280;67136;47.546;21.630;2023-03-14T05:10:16;99438.13;;;8.11;47.94
77939;BME280;67136;47.546;21.630;2023-03-14T05:13:19;99434.34;;;8.15;47.82
77939;BME280;67136;47.546;21.630;2023-03-14T05:16:22;99429.22;;;8.13;47.95
77939;BME280;67136;47.546;21.630;2023-03-14T05:19:25;99432.50;;;8.06;48.38
77939;BME280;67136;47.546;21.630;2023-03-14T05:22:29;99442.66;;;8.09;48.33
77939;BME280;67136;47.546;21.630;2023-03-14T05:25:32;99436.87;;;8.05;48.57
77939;BME280;67136;47.546;21.630;2023-03-14T05:28:34;99427.56;;;8.03;48.70
77939;BME280;67136;47.546;21.630;2023-03-14T05:31:38;99443.19;;;8.03;48.71
77939;BME280;67136;47.546;21.630;2023-03-14T05:34:40;99437.56;;;8.07;48.68
77939;BME280;67136;47.546;21.630;2023-03-14T05:37:43;99429.59;;;7.99;49.09
77939;BME280;67136;47.546;21.630;2023-03-14T05:40:46;99432.34;;;7.98;49.11
77939;BME280;67136;47.546;21.630;2023-03-14T05:43:49;99432.22;;;8.09;48.54
77939;BME280;67136;47.546;21.630;2023-03-14T05:46:52;99426.06;;;8.10;48.69
77939;BME280;67136;47.546;21.630;2023-03-14T05:49:55;99424.34;;;8.20;48.27
77939;BME280;67136;47.546;21.630;2023-03-14T05:52:58;99419.31;;;8.28;47.76
77939;BME280;67136;47.546;21.630;2023-03-14T05:56:02;99415.88;;;8.37;47.74
77939;BME280;67136;47.546;21.630;2023-03-14T05:59:05;99426.91;;;8.50;47.18
77939;BME280;67136;47.546;21.630;2023-03-14T06:02:11;99418.97;;;8.61;46.64
77939;BME280;67136;47.546;21.630;2023-03-14T06:05:15;99426.41;;;8.75;46.04
77939;BME280;67136;47.546;21.630;2023-03-14T06:08:18;99408.69;;;8.88;45.66
77939;BME280;67136;47.546;21.630;2023-03-14T06:11:21;99414.03;;;9.06;44.81
77939;BME280;67136;47.546;21.630;2023-03-14T06:14:23;99427.59;;;9.09;44.80
77939;BME280;67136;47.546;21.630;2023-03-14T06:17:26;99424.19;;;9.18;44.46
77939;BME280;67136;47.546;21.630;2023-03-14T06:20:29;99429.22;;;9.29;43.98
77939;BME280;67136;47.546;21.630;2023-03-14T06:23:32;99442.28;;;9.29;44.21
77939;BME280;67136;47.546;21.630;2023-03-14T06:26:36;99433.78;;;9.27;44.39
77939;BME280;67136;47.546;21.630;2023-03-14T06:29:39;99436.50;;;9.26;44.67
77939;BME280;67136;47.546;21.630;2023-03-14T06:32:42;99426.78;;;9.28;44.64
77939;BME280;67136;47.546;21.630;2023-03-14T06:35:45;99432.13;;;9.26;45.18
77939;BME280;67136;47.546;21.630;2023-03-14T06:38:48;99434.59;;;9.28;45.06
77939;BME280;67136;47.546;21.630;2023-03-14T06:41:52;99442.03;;;9.32;44.79
77939;BME280;67136;47.546;21.630;2023-03-14T06:44:55;99429.63;;;9.34;45.28
77939;BME280;67136;47.546;21.630;2023-03-14T06:48:00;99431.31;;;9.35;45.32
77939;BME280;67136;47.546;21.630;2023-03-14T06:51:05;99425.53;;;9.32;45.46
77939;BME280;67136;47.546;21.630;2023-03-14T06:54:09;99447.78;;;9.26;45.69
77939;BME280;67136;47.546;21.630;2023-03-14T06:57:11;99438.31;;;9.25;45.81
77939;BME280;67136;47.546;21.630;2023-03-14T07:00:14;99440.09;;;9.25;45.84
77939;BME280;67136;47.546;21.630;2023-03-14T07:03:17;99433.91;;;9.26;45.96
77939;BME280;67136;47.546;21.630;2023-03-14T07:06:20;99426.38;;;9.32;46.07
77939;BME280;67136;47.546;21.630;2023-03-14T07:09:23;99422.22;;;9.39;45.93
77939;BME280;67136;47.546;21.630;2023-03-14T07:12:27;99426.59;;;9.48;45.82
77939;BME280;67136;47.546;21.630;2023-03-14T07:15:29;99421.09;;;9.51;45.68
77939;BME280;67136;47.546;21.630;2023-03-14T07:18:32;99430.16;;;9.57;45.29
77939;BME280;67136;47.546;21.630;2023-03-14T07:21:38;99421.66;;;9.55;45.47
77939;BME280;67136;47.546;21.630;2023-03-14T07:24:41;99426.31;;;9.61;45.56
77939;BME280;67136;47.546;21.630;2023-03-14T07:27:45;99419.00;;;9.64;45.56
77939;BME280;67136;47.546;21.630;2023-03-14T07:30:48;99404.81;;;9.76;45.31
77939;BME280;67136;47.546;21.630;2023-03-14T07:33:51;99401.50;;;9.84;45.13
77939;BME280;67136;47.546;21.630;2023-03-14T07:36:55;99397.91;;;9.94;44.46
77939;BME280;67136;47.546;21.630;2023-03-14T07:39:57;99391.69;;;9.95;44.39
77939;BME280;67136;47.546;21.630;2023-03-14T07:43:00;99394.25;;;10.05;44.33
77939;BME280;67136;47.546;21.630;2023-03-14T07:46:03;99399.09;;;10.10;43.66
77939;BME280;67136;47.546;21.630;2023-03-14T07:49:06;99400.81;;;10.19;43.73
77939;BME280;67136;47.546;21.630;2023-03-14T07:52:08;99399.72;;;10.21;43.60
77939;BME280;67136;47.546;21.630;2023-03-14T07:55:11;99407.69;;;10.20;43.40
77939;BME280;67136;47.546;21.630;2023-03-14T07:58:15;99396.66;;;10.26;43.92
77939;BME280;67136;47.546;21.630;2023-03-14T08:01:18;99401.88;;;10.26;43.55
77939;BME280;67136;47.546;21.630;2023-03-14T08:04:21;99392.25;;;10.26;43.42
77939;BME280;67136;47.546;21.630;2023-03-14T08:07:24;99396.19;;;10.30;43.31
77939;BME280;67136;47.546;21.630;2023-03-14T08:10:27;99387.25;;;10.33;42.69
77939;BME280;67136;47.546;21.630;2023-03-14T08:13:30;99388.59;;;10.37;42.79
77939;BME280;67136;47.546;21.630;2023-03-14T08:16:33;99382.56;;;10.36;42.68
77939;BME280;67136;47.546;21.630;2023-03-14T08:19:36;99379.50;;;10.41;42.57
77939;BME280;67136;47.546;21.630;2023-03-14T08:22:38;99384.50;;;10.52;42.51
77939;BME280;67136;47.546;21.630;2023-03-14T08:25:41;99378.41;;;10.61;42.11
77939;BME280;67136;47.546;21.630;2023-03-14T08:28:44;99384.69;;;10.68;41.90
77939;BME280;67136;47.546;21.630;2023-03-14T08:31:46;99376.03;;;10.85;41.65
77939;BME280;67136;47.546;21.630;2023-03-14T08:34:51;99373.63;;;10.91;41.41
77939;BME280;67136;47.546;21.630;2023-03-14T08:37:53;99369.13;;;11.01;41.08
77939;BME280;67136;47.546;21.630;2023-03-14T08:40:58;99369.31;;;11.08;40.79
77939;BME280;67136;47.546;21.630;2023-03-14T08:44:01;99359.81;;;11.24;40.46
77939;BME280;67136;47.546;21.630;2023-03-14T08:47:04;99362.31;;;11.34;40.60
77939;BME280;67136;47.546;21.630;2023-03-14T08:50:07;99369.25;;;11.43;39.91
77939;BME280;67136;47.546;21.630;2023-03-14T08:53:12;99367.69;;;11.84;39.41
77939;BME280;67136;47.546;21.630;2023-03-14T08:56:15;99371.75;;;12.12;38.59
77939;BME280;67136;47.546;21.630;2023-03-14T08:59:18;99363.97;;;12.60;37.76
77939;BME280;67136;47.546;21.630;2023-03-14T09:02:20;99368.22;;;13.57;36.24
77939;BME280;67136;47.546;21.630;2023-03-14T09:05:23;99355.03;;;13.03;36.38
77939;BME280;67136;47.546;21.630;2023-03-14T09:08:25;99345.81;;;12.83;37.05
77939;BME280;67136;47.546;21.630;2023-03-14T09:11:28;99338.28;;;12.72;37.24
77939;BME280;67136;47.546;21.630;2023-03-14T09:14:31;99327.12;;;12.62;37.06
77939;BME280;67136;47.546;21.630;2023-03-14T09:17:34;99335.00;;;12.70;36.83
77939;BME280;67136;47.546;21.630;2023-03-14T09:20:36;99335.12;;;12.60;36.46
77939;BME280;67136;47.546;21.630;2023-03-14T09:23:39;99311.41;;;12.62;36.52
77939;BME280;67136;47.546;21.630;2023-03-14T09:26:42;99322.19;;;12.59;36.25
77939;BME280;67136;47.546;21.630;2023-03-14T09:29:45;99316.31;;;12.65;36.24
77939;BME280;67136;47.546;21.630;2023-03-14T09:32:47;99305.16;;;12.79;35.90
77939;BME280;67136;47.546;21.630;2023-03-14T09:35:50;99311.72;;;12.67;35.94
77939;BME280;67136;47.546;21.630;2023-03-14T09:38:53;99301.88;;;12.69;35.97
77939;BME280;67136;47.546;21.630;2023-03-14T09:41:57;99325.00;;;12.81;35.50
77939;BME280;67136;47.546;21.630;2023-03-14T09:45:04;99291.72;;;12.82;35.78
77939;BME280;67136;47.546;21.630;2023-03-14T09:48:15;99298.59;;;12.83;35.69
77939;BME280;67136;47.546;21.630;2023-03-14T09:51:20;99306.81;;;12.80;35.90
77939;BME280;67136;47.546;21.630;2023-03-14T09:54:35;99285.00;;;12.95;35.94
77939;BME280;67136;47.546;21.630;2023-03-14T09:57:39;99274.31;;;12.81;36.24
77939;BME280;67136;47.546;21.630;2023-03-14T10:00:43;99272.38;;;12.75;35.94
77939;BME280;67136;47.546;21.630;2023-03-14T10:03:47;99271.72;;;12.73;35.85
77939;BME280;67136;47.546;21.630;2023-03-14T10:06:49;99255.91;;;13.21;35.76
77939;BME280;67136;47.546;21.630;2023-03-14T10:09:52;99260.13;;;13.38;35.30
77939;BME280;67136;47.546;21.630;2023-03-14T10:16:16;99265.41;;;13.30;35.40
77939;BME280;67136;47.546;21.630;2023-03-14T10:19:19;99247.69;;;13.32;35.61
77939;BME280;67136;47.546;21.630;2023-03-14T10:22:26;99251.16;;;14.24;34.31
77939;BME280;67136;47.546;21.630;2023-03-14T10:25:35;99238.87;;;16.07;30.62
77939;BME280;67136;47.546;21.630;2023-03-14T10:28:46;99233.84;;;17.78;28.36
77939;BME280;67136;47.546;21.630;2023-03-14T10:31:59;99233.00;;;17.71;27.94
77939;BME280;67136;47.546;21.630;2023-03-14T10:38:17;99211.34;;;16.59;30.01
77939;BME280;67136;47.546;21.630;2023-03-14T10:41:26;99210.56;;;17.20;28.96
77939;BME280;67136;47.546;21.630;2023-03-14T10:44:34;99214.75;;;16.80;29.39
77939;BME280;67136;47.546;21.630;2023-03-14T10:47:48;99194.13;;;17.24;29.25
77939;BME280;67136;47.546;21.630;2023-03-14T10:54:18;99192.63;;;19.01;27.01
77939;BME280;67136;47.546;21.630;2023-03-14T10:57:21;99193.56;;;17.83;28.62
77939;BME280;67136;47.546;21.630;2023-03-14T11:00:24;99174.28;;;18.15;28.09
77939;BME280;67136;47.546;21.630;2023-03-14T11:03:31;99170.69;;;17.08;29.67
77939;BME280;67136;47.546;21.630;2023-03-14T11:07:05;99156.63;;;16.74;30.31
77939;BME280;67136;47.546;21.630;2023-03-14T11:13:43;99146.19;;;16.38;31.06
77939;BME280;67136;47.546;21.630;2023-03-14T11:33:42;99120.66;;;19.61;26.60
77939;BME280;67136;47.546;21.630;2023-03-14T11:40:27;99117.91;;;17.95;29.49
77939;BME280;67136;47.546;21.630;2023-03-14T11:43:35;99130.03;;;19.00;27.90
77939;BME280;67136;47.546;21.630;2023-03-14T11:46:50;99103.59;;;20.07;26.64
77939;BME280;67136;47.546;21.630;2023-03-14T11:50:18;99108.06;;;20.80;25.56
77939;BME280;67136;47.546;21.630;2023-03-14T11:53:39;99087.34;;;19.72;27.20
77939;BME280;67136;47.546;21.630;2023-03-14T11:56:55;99093.09;;;18.61;28.45
77939;BME280;67136;47.546;21.630;2023-03-14T12:00:13;99082.53;;;20.36;26.47
77939;BME280;67136;47.546;21.630;2023-03-14T12:03:33;99067.09;;;20.69;26.06
77939;BME280;67136;47.546;21.630;2023-03-14T12:06:47;99051.72;;;21.55;25.09
77939;BME280;67136;47.546;21.630;2023-03-14T12:09:52;99045.44;;;20.30;26.74
77939;BME280;67136;47.546;21.630;2023-03-14T12:12:57;99044.00;;;20.03;26.87
77939;BME280;67136;47.546;21.630;2023-03-14T12:16:04;99032.50;;;20.76;25.60
77939;BME280;67136;47.546;21.630;2023-03-14T12:22:29;99030.28;;;20.73;26.26
77939;BME280;67136;47.546;21.630;2023-03-14T12:25:34;99026.00;;;21.49;25.12
77939;BME280;67136;47.546;21.630;2023-03-14T12:28:37;99029.53;;;20.84;24.95
77939;BME280;67136;47.546;21.630;2023-03-14T12:34:43;99017.34;;;22.06;23.37
77939;BME280;67136;47.546;21.630;2023-03-14T12:37:48;99008.22;;;20.72;24.78
77939;BME280;67136;47.546;21.630;2023-03-14T12:50:45;99016.97;;;20.19;25.98
77939;BME280;67136;47.546;21.630;2023-03-14T12:57:20;99026.16;;;17.89;29.43
77939;BME280;67136;47.546;21.630;2023-03-14T13:00:34;99003.37;;;17.62;30.33
77939;BME280;67136;47.546;21.630;2023-03-14T13:06:57;98995.63;;;17.67;30.39
77939;BME280;67136;47.546;21.630;2023-03-14T13:13:21;98997.84;;;17.83;30.44
77939;BME280;67136;47.546;21.630;2023-03-14T13:16:24;98997.25;;;17.61;31.16
77939;BME280;67136;47.546;21.630;2023-03-14T13:19:29;98984.63;;;18.09;30.36
77939;BME280;67136;47.546;21.630;2023-03-14T13:22:33;98977.22;;;18.50;30.07
77939;BME280;67136;47.546;21.630;2023-03-14T13:25:42;98977.19;;;18.63;30.09
77939;BME280;67136;47.546;21.630;2023-03-14T13:28:44;98966.94;;;18.67;30.03
77939;BME280;67136;47.546;21.630;2023-03-14T13:31:50;98954.78;;;19.03;29.40
77939;BME280;67136;47.546;21.630;2023-03-14T13:34:57;98953.94;;;18.65;29.87
77939;BME280;67136;47.546;21.630;2023-03-14T13:38:02;98947.66;;;18.60;30.36
77939;BME280;67136;47.546;21.630;2023-03-14T13:41:13;98950.72;;;18.94;29.91
77939;BME280;67136;47.546;21.630;2023-03-14T13:44:34;98932.09;;;19.07;29.10
77939;BME280;67136;47.546;21.630;2023-03-14T13:47:38;98924.94;;;19.14;29.17
77939;BME280;67136;47.546;21.630;2023-03-14T13:51:06;98912.53;;;18.77;29.61
77939;BME280;67136;47.546;21.630;2023-03-14T13:54:17;98936.59;;;18.12;30.92
77939;BME280;67136;47.546;21.630;2023-03-14T13:57:20;98933.78;;;17.87;30.54
77939;BME280;67136;47.546;21.630;2023-03-14T14:00:25;98926.09;;;17.53;31.22
77939;BME280;67136;47.546;21.630;2023-03-14T14:03:36;98916.28;;;17.27;31.80
77939;BME280;67136;47.546;21.630;2023-03-14T14:06:44;98914.25;;;17.16;32.31
77939;BME280;67136;47.546;21.630;2023-03-14T14:09:52;98913.00;;;16.93;33.16
77939;BME280;67136;47.546;21.630;2023-03-14T14:13:01;98911.97;;;16.87;33.77
77939;BME280;67136;47.546;21.630;2023-03-14T14:16:06;98902.03;;;16.83;33.97
77939;BME280;67136;47.546;21.630;2023-03-14T14:19:09;98902.16;;;16.68;33.87
77939;BME280;67136;47.546;21.630;2023-03-14T14:22:12;98896.06;;;16.55;34.48
77939;BME280;67136;47.546;21.630;2023-03-14T14:25:15;98889.34;;;16.52;34.83
77939;BME280;67136;47.546;21.630;2023-03-14T14:28:30;98889.28;;;16.39;34.76
77939;BME280;67136;47.546;21.630;2023-03-14T14:31:34;98886.81;;;16.31;34.92
77939;BME280;67136;47.546;21.630;2023-03-14T14:34:43;98872.59;;;16.26;34.79
77939;BME280;67136;47.546;21.630;2023-03-14T14:37:52;98872.97;;;16.16;33.51
77939;BME280;67136;47.546;21.630;2023-03-14T14:41:00;98876.12;;;16.05;33.44
77939;BME280;67136;47.546;21.630;2023-03-14T14:44:04;98867.00;;;16.01;33.80
77939;BME280;67136;47.546;21.630;2023-03-14T14:47:06;98864.75;;;16.04;33.89
77939;BME280;67136;47.546;21.630;2023-03-14T14:53:40;98866.34;;;15.92;34.64
77939;BME280;67136;47.546;21.630;2023-03-14T14:56:48;98866.31;;;15.86;34.91
77939;BME280;67136;47.546;21.630;2023-03-14T14:59:55;98867.50;;;15.83;34.94
77939;BME280;67136;47.546;21.630;2023-03-14T15:03:01;98867.94;;;15.87;35.07
77939;BME280;67136;47.546;21.630;2023-03-14T15:06:04;98856.56;;;15.86;34.90
77939;BME280;67136;47.546;21.630;2023-03-14T15:09:10;98869.94;;;15.85;35.06
77939;BME280;67136;47.546;21.630;2023-03-14T15:12:13;98862.41;;;15.75;35.40
77939;BME280;67136;47.546;21.630;2023-03-14T15:15:16;98859.75;;;15.75;35.62
77939;BME280;67136;47.546;21.630;2023-03-14T15:18:19;98849.63;;;15.72;35.77
77939;BME280;67136;47.546;21.630;2023-03-14T15:21:23;98843.59;;;15.85;35.93
77939;BME280;67136;47.546;21.630;2023-03-14T15:24:26;98839.31;;;15.77;36.08
77939;BME280;67136;47.546;21.630;2023-03-14T15:27:30;98832.56;;;15.68;36.39
77939;BME280;67136;47.546;21.630;2023-03-14T15:30:33;98830.50;;;15.64;36.72
77939;BME280;67136;47.546;21.630;2023-03-14T15:33:35;98835.34;;;15.60;36.96
77939;BME280;67136;47.546;21.630;2023-03-14T15:36:38;98824.38;;;15.57;37.20
77939;BME280;67136;47.546;21.630;2023-03-14T15:39:42;98835.13;;;15.55;37.44
77939;BME280;67136;47.546;21.630;2023-03-14T15:42:45;98825.13;;;15.51;37.52
77939;BME280;67136;47.546;21.630;2023-03-14T15:45:48;98825.53;;;15.48;37.75
77939;BME280;67136;47.546;21.630;2023-03-14T15:48:53;98830.19;;;15.46;37.65
77939;BME280;67136;47.546;21.630;2023-03-14T15:51:55;98832.56;;;15.41;37.70
77939;BME280;67136;47.546;21.630;2023-03-14T15:54:59;98826.06;;;15.37;37.95
77939;BME280;67136;47.546;21.630;2023-03-14T15:58:02;98818.09;;;15.30;38.25
77939;BME280;67136;47.546;21.630;2023-03-14T16:01:05;98817.69;;;15.27;38.38
77939;BME280;67136;47.546;21.630;2023-03-14T16:04:07;98828.59;;;15.24;38.45
77939;BME280;67136;47.546;21.630;2023-03-14T16:07:10;98813.16;;;15.21;38.50
77939;BME280;67136;47.546;21.630;2023-03-14T16:10:14;98820.47;;;15.19;38.66
77939;BME280;67136;47.546;21.630;2023-03-14T16:13:17;98823.22;;;15.11;38.93
77939;BME280;67136;47.546;21.630;2023-03-14T16:16:20;98830.88;;;15.06;39.37
77939;BME280;67136;47.546;21.630;2023-03-14T16:19:26;98824.38;;;15.02;39.34
77939;BME280;67136;47.546;21.630;2023-03-14T16:22:30;98823.88;;;14.91;39.81
77939;BME280;67136;47.546;21.630;2023-03-14T16:25:36;98823.25;;;14.89;39.62
77939;BME280;67136;47.546;21.630;2023-03-14T16:28:40;98827.63;;;14.82;39.78
77939;BME280;67136;47.546;21.630;2023-03-14T16:31:42;98831.84;;;14.77;40.01
77939;BME280;67136;47.546;21.630;2023-03-14T16:34:46;98834.66;;;14.75;39.81
77939;BME280;67136;47.546;21.630;2023-03-14T16:37:48;98835.87;;;14.73;39.81
77939;BME280;67136;47.546;21.630;2023-03-14T16:40:58;98833.78;;;14.68;39.76
77939;BME280;67136;47.546;21.630;2023-03-14T16:44:01;98829.28;;;14.62;40.09
77939;BME280;67136;47.546;21.630;2023-03-14T16:47:04;98835.19;;;14.50;40.44
77939;BME280;67136;47.546;21.630;2023-03-14T16:50:11;98830.06;;;14.42;40.58
77939;BME280;67136;47.546;21.630;2023-03-14T16:53:14;98831.00;;;14.34;40.71
77939;BME280;67136;47.546;21.630;2023-03-14T16:56:17;98828.91;;;14.30;40.97
77939;BME280;67136;47.546;21.630;2023-03-14T16:59:20;98841.97;;;14.23;41.12
77939;BME280;67136;47.546;21.630;2023-03-14T17:02:22;98844.97;;;14.20;41.16
77939;BME280;67136;47.546;21.630;2023-03-14T17:05:25;98840.66;;;14.13;41.42
77939;BME280;67136;47.546;21.630;2023-03-14T17:08:28;98839.19;;;14.10;41.41
77939;BME280;67136;47.546;21.630;2023-03-14T17:11:32;98840.81;;;14.11;41.22
77939;BME280;67136;47.546;21.630;2023-03-14T17:14:34;98835.66;;;14.18;40.70
77939;BME280;67136;47.546;21.630;2023-03-14T17:17:37;98837.84;;;14.14;40.67
77939;BME280;67136;47.546;21.630;2023-03-14T17:20:40;98833.63;;;14.20;40.06
77939;BME280;67136;47.546;21.630;2023-03-14T17:23:42;98830.47;;;14.24;39.87